sensor_id;sensor_type;location;lat;lon;timestamp;temperature;humidity
15574;DHT22;7888;46.748;8.102;2023-04-03T00:00:25;12.40;54.60
15574;DHT22;7888;46.748;8.102;2023-04-03T00:02:51;12.30;54.60
15574;DHT22;7888;46.748;8.102;2023-04-03T00:05:17;12.30;54.60
15574;DHT22;7888;46.748;8.102;2023-04-03T00:07:43;12.20;54.60
15574;DHT22;7888;46.748;8.102;2023-04-03T00:10:09;12.20;54.60
15574;DHT22;7888;46.748;8.102;2023-04-03T00:12:35;12.20;54.70
15574;DHT22;7888;46.748;8.102;2023-04-03T00:15:01;12.20;54.80
15574;DHT22;7888;46.748;8.102;2023-04-03T00:17:27;12.20;55.00
15574;DHT22;7888;46.748;8.102;2023-04-03T00:19:52;12.20;55.00
15574;DHT22;7888;46.748;8.102;2023-04-03T00:22:18;12.20;55.10
15574;DHT22;7888;46.748;8.102;2023-04-03T00:24:44;12.20;55.10
15574;DHT22;7888;46.748;8.102;2023-04-03T00:27:10;12.20;55.10
15574;DHT22;7888;46.748;8.102;2023-04-03T00:29:36;12.20;55.10
15574;DHT22;7888;46.748;8.102;2023-04-03T00:32:02;12.20;55.10
15574;DHT22;7888;46.748;8.102;2023-04-03T00:34:28;12.20;55.00
15574;DHT22;7888;46.748;8.102;2023-04-03T00:36:54;12.20;55.10
15574;DHT22;7888;46.748;8.102;2023-04-03T00:39:20;12.30;55.20
15574;DHT22;7888;46.748;8.102;2023-04-03T00:41:46;12.20;55.10
15574;DHT22;7888;46.748;8.102;2023-04-03T00:44:20;12.20;55.20
15574;DHT22;7888;46.748;8.102;2023-04-03T00:46:47;12.20;55.60
15574;DHT22;7888;46.748;8.102;2023-04-03T00:49:13;12.30;55.30
15574;DHT22;7888;46.748;8.102;2023-04-03T00:51:38;12.30;55.40
15574;DHT22;7888;46.748;8.102;2023-04-03T00:54:07;12.30;55.40
15574;DHT22;7888;46.748;8.102;2023-04-03T00:56:34;12.20;55.30
15574;DHT22;7888;46.748;8.102;2023-04-03T00:59:05;12.30;55.10
15574;DHT22;7888;46.748;8.102;2023-04-03T01:01:36;12.20;55.10
15574;DHT22;7888;46.748;8.102;2023-04-03T01:04:04;12.20;55.00
15574;DHT22;7888;46.748;8.102;2023-04-03T01:06:34;12.20;54.90
15574;DHT22;7888;46.748;8.102;2023-04-03T01:09:03;12.30;55.00
15574;DHT22;7888;46.748;8.102;2023-04-03T01:11:29;12.30;55.10
15574;DHT22;7888;46.748;8.102;2023-04-03T01:13:55;12.20;55.00
15574;DHT22;7888;46.748;8.102;2023-04-03T01:16:21;12.20;55.10
15574;DHT22;7888;46.748;8.102;2023-04-03T01:18:48;12.20;55.20
15574;DHT22;7888;46.748;8.102;2023-04-03T01:21:46;12.20;55.20
15574;DHT22;7888;46.748;8.102;2023-04-03T01:24:33;12.10;55.80
15574;DHT22;7888;46.748;8.102;2023-04-03T01:27:04;12.20;55.50
15574;DHT22;7888;46.748;8.102;2023-04-03T01:29:31;12.10;55.30
15574;DHT22;7888;46.748;8.102;2023-04-03T01:31:59;12.10;55.30
15574;DHT22;7888;46.748;8.102;2023-04-03T01:34:27;12.00;55.40
15574;DHT22;7888;46.748;8.102;2023-04-03T01:36:54;12.00;55.40
15574;DHT22;7888;46.748;8.102;2023-04-03T01:39:20;12.00;55.40
15574;DHT22;7888;46.748;8.102;2023-04-03T01:41:47;12.00;55.50
15574;DHT22;7888;46.748;8.102;2023-04-03T01:44:13;12.00;55.50
15574;DHT22;7888;46.748;8.102;2023-04-03T01:46:39;12.00;55.50
15574;DHT22;7888;46.748;8.102;2023-04-03T01:49:05;12.00;55.40
15574;DHT22;7888;46.748;8.102;2023-04-03T01:51:31;12.00;55.20
15574;DHT22;7888;46.748;8.102;2023-04-03T01:53:57;12.00;54.90
15574;DHT22;7888;46.748;8.102;2023-04-03T01:56:22;12.00;54.80
15574;DHT22;7888;46.748;8.102;2023-04-03T01:58:48;11.90;54.70
15574;DHT22;7888;46.748;8.102;2023-04-03T02:01:16;11.90;54.70
15574;DHT22;7888;46.748;8.102;2023-04-03T02:03:42;11.90;54.60
15574;DHT22;7888;46.748;8.102;2023-04-03T02:06:08;11.90;54.40
15574;DHT22;7888;46.748;8.102;2023-04-03T02:08:34;11.80;54.30
15574;DHT22;7888;46.748;8.102;2023-04-03T02:11:00;11.80;54.30
15574;DHT22;7888;46.748;8.102;2023-04-03T02:13:25;11.80;54.80
15574;DHT22;7888;46.748;8.102;2023-04-03T02:15:51;11.80;54.10
15574;DHT22;7888;46.748;8.102;2023-04-03T02:18:17;11.80;54.10
15574;DHT22;7888;46.748;8.102;2023-04-03T02:20:43;11.80;54.30
15574;DHT22;7888;46.748;8.102;2023-04-03T02:23:10;11.80;54.40
15574;DHT22;7888;46.748;8.102;2023-04-03T02:25:36;11.80;54.50
15574;DHT22;7888;46.748;8.102;2023-04-03T02:28:02;11.80;54.30
15574;DHT22;7888;46.748;8.102;2023-04-03T02:30:27;11.80;54.30
15574;DHT22;7888;46.748;8.102;2023-04-03T02:32:53;11.80;54.20
15574;DHT22;7888;46.748;8.102;2023-04-03T02:35:20;11.80;54.10
15574;DHT22;7888;46.748;8.102;2023-04-03T02:37:46;11.70;54.00
15574;DHT22;7888;46.748;8.102;2023-04-03T02:40:11;11.70;54.00
15574;DHT22;7888;46.748;8.102;2023-04-03T02:42:37;11.80;54.10
15574;DHT22;7888;46.748;8.102;2023-04-03T02:45:04;11.70;54.20
15574;DHT22;7888;46.748;8.102;2023-04-03T02:47:30;11.70;54.40
15574;DHT22;7888;46.748;8.102;2023-04-03T02:49:56;11.70;54.30
15574;DHT22;7888;46.748;8.102;2023-04-03T02:52:22;11.70;54.20
15574;DHT22;7888;46.748;8.102;2023-04-03T02:54:48;11.70;54.30
15574;DHT22;7888;46.748;8.102;2023-04-03T02:57:14;11.60;54.30
15574;DHT22;7888;46.748;8.102;2023-04-03T02:59:39;11.60;54.30
15574;DHT22;7888;46.748;8.102;2023-04-03T03:02:09;11.60;54.20
15574;DHT22;7888;46.748;8.102;2023-04-03T03:04:36;11.50;54.10
15574;DHT22;7888;46.748;8.102;2023-04-03T03:07:03;11.60;54.30
15574;DHT22;7888;46.748;8.102;2023-04-03T03:09:29;11.50;54.30
15574;DHT22;7888;46.748;8.102;2023-04-03T03:11:56;11.50;54.30
15574;DHT22;7888;46.748;8.102;2023-04-03T03:14:22;11.40;54.30
15574;DHT22;7888;46.748;8.102;2023-04-03T03:16:48;11.40;54.30
15574;DHT22;7888;46.748;8.102;2023-04-03T03:19:14;11.40;54.40
15574;DHT22;7888;46.748;8.102;2023-04-03T03:21:40;11.40;54.50
15574;DHT22;7888;46.748;8.102;2023-04-03T03:24:06;11.40;54.60
15574;DHT22;7888;46.748;8.102;2023-04-03T03:26:32;11.40;54.60
15574;DHT22;7888;46.748;8.102;2023-04-03T03:28:58;11.40;54.60
15574;DHT22;7888;46.748;8.102;2023-04-03T03:31:24;11.30;54.50
15574;DHT22;7888;46.748;8.102;2023-04-03T03:33:50;11.30;54.60
15574;DHT22;7888;46.748;8.102;2023-04-03T03:36:15;11.20;54.60
15574;DHT22;7888;46.748;8.102;2023-04-03T03:38:41;11.20;54.50
15574;DHT22;7888;46.748;8.102;2023-04-03T03:41:07;11.10;54.60
15574;DHT22;7888;46.748;8.102;2023-04-03T03:43:33;11.10;54.80
15574;DHT22;7888;46.748;8.102;2023-04-03T03:45:59;11.10;54.90
15574;DHT22;7888;46.748;8.102;2023-04-03T03:48:25;11.10;55.10
15574;DHT22;7888;46.748;8.102;2023-04-03T03:50:50;11.10;55.20
15574;DHT22;7888;46.748;8.102;2023-04-03T03:53:16;11.10;55.30
15574;DHT22;7888;46.748;8.102;2023-04-03T03:55:43;11.10;55.30
15574;DHT22;7888;46.748;8.102;2023-04-03T03:58:09;11.10;55.30
15574;DHT22;7888;46.748;8.102;2023-04-03T04:00:35;11.10;55.30
15574;DHT22;7888;46.748;8.102;2023-04-03T04:03:01;11.10;55.40
15574;DHT22;7888;46.748;8.102;2023-04-03T04:05:26;11.10;55.50
15574;DHT22;7888;46.748;8.102;2023-04-03T04:07:52;11.10;55.50
15574;DHT22;7888;46.748;8.102;2023-04-03T04:10:18;11.10;55.60
15574;DHT22;7888;46.748;8.102;2023-04-03T04:12:44;11.20;55.60
15574;DHT22;7888;46.748;8.102;2023-04-03T04:15:12;11.10;55.30
15574;DHT22;7888;46.748;8.102;2023-04-03T04:17:39;11.10;55.40
15574;DHT22;7888;46.748;8.102;2023-04-03T04:20:05;11.10;55.20
15574;DHT22;7888;46.748;8.102;2023-04-03T04:22:31;11.10;55.10
15574;DHT22;7888;46.748;8.102;2023-04-03T04:24:57;11.10;55.20
15574;DHT22;7888;46.748;8.102;2023-04-03T04:27:22;11.10;55.30
15574;DHT22;7888;46.748;8.102;2023-04-03T04:29:48;11.10;55.40
15574;DHT22;7888;46.748;8.102;2023-04-03T04:32:14;11.10;55.20
15574;DHT22;7888;46.748;8.102;2023-04-03T04:34:40;11.10;55.00
15574;DHT22;7888;46.748;8.102;2023-04-03T04:37:05;11.10;55.00
15574;DHT22;7888;46.748;8.102;2023-04-03T04:39:31;11.10;55.10
15574;DHT22;7888;46.748;8.102;2023-04-03T04:41:57;11.10;55.20
15574;DHT22;7888;46.748;8.102;2023-04-03T04:44:23;11.10;55.20
15574;DHT22;7888;46.748;8.102;2023-04-03T04:46:49;11.10;55.20
15574;DHT22;7888;46.748;8.102;2023-04-03T04:49:14;11.10;55.10
15574;DHT22;7888;46.748;8.102;2023-04-03T04:51:40;11.10;54.90
15574;DHT22;7888;46.748;8.102;2023-04-03T04:54:06;11.00;54.90
15574;DHT22;7888;46.748;8.102;2023-04-03T04:56:32;11.10;55.00
15574;DHT22;7888;46.748;8.102;2023-04-03T04:58:57;11.00;55.00
15574;DHT22;7888;46.748;8.102;2023-04-03T05:01:23;11.00;54.80
15574;DHT22;7888;46.748;8.102;2023-04-03T05:03:49;11.00;54.60
15574;DHT22;7888;46.748;8.102;2023-04-03T05:06:15;11.00;54.60
15574;DHT22;7888;46.748;8.102;2023-04-03T05:08:41;10.90;54.50
15574;DHT22;7888;46.748;8.102;2023-04-03T05:11:07;10.90;54.60
15574;DHT22;7888;46.748;8.102;2023-04-03T05:13:32;10.90;55.10
15574;DHT22;7888;46.748;8.102;2023-04-03T05:15:58;10.90;54.60
15574;DHT22;7888;46.748;8.102;2023-04-03T05:18:24;10.80;54.70
15574;DHT22;7888;46.748;8.102;2023-04-03T05:20:50;10.80;54.60
15574;DHT22;7888;46.748;8.102;2023-04-03T05:23:17;10.80;54.60
15574;DHT22;7888;46.748;8.102;2023-04-03T05:25:43;10.80;54.70
15574;DHT22;7888;46.748;8.102;2023-04-03T05:28:11;10.80;54.80
15574;DHT22;7888;46.748;8.102;2023-04-03T05:30:37;10.80;55.00
15574;DHT22;7888;46.748;8.102;2023-04-03T05:33:03;10.80;55.10
15574;DHT22;7888;46.748;8.102;2023-04-03T05:35:29;10.80;54.90
15574;DHT22;7888;46.748;8.102;2023-04-03T05:37:54;10.80;54.80
15574;DHT22;7888;46.748;8.102;2023-04-03T05:40:20;10.80;54.60
15574;DHT22;7888;46.748;8.102;2023-04-03T05:42:46;10.80;54.60
15574;DHT22;7888;46.748;8.102;2023-04-03T05:45:12;10.80;54.50
15574;DHT22;7888;46.748;8.102;2023-04-03T05:47:38;10.80;54.40
15574;DHT22;7888;46.748;8.102;2023-04-03T05:50:04;10.80;54.40
15574;DHT22;7888;46.748;8.102;2023-04-03T05:52:34;10.70;54.30
15574;DHT22;7888;46.748;8.102;2023-04-03T05:55:02;10.70;54.30
15574;DHT22;7888;46.748;8.102;2023-04-03T05:57:28;10.70;54.20
15574;DHT22;7888;46.748;8.102;2023-04-03T05:59:54;10.70;54.20
15574;DHT22;7888;46.748;8.102;2023-04-03T06:02:22;10.70;54.20
15574;DHT22;7888;46.748;8.102;2023-04-03T06:04:50;10.70;54.20
15574;DHT22;7888;46.748;8.102;2023-04-03T06:07:21;10.70;54.10
15574;DHT22;7888;46.748;8.102;2023-04-03T06:09:50;10.70;54.00
15574;DHT22;7888;46.748;8.102;2023-04-03T06:12:17;10.70;54.00
15574;DHT22;7888;46.748;8.102;2023-04-03T06:14:43;10.70;54.00
15574;DHT22;7888;46.748;8.102;2023-04-03T06:17:09;10.70;54.00
15574;DHT22;7888;46.748;8.102;2023-04-03T06:19:36;10.70;54.00
15574;DHT22;7888;46.748;8.102;2023-04-03T06:22:02;10.70;53.90
15574;DHT22;7888;46.748;8.102;2023-04-03T06:24:29;10.80;53.90
15574;DHT22;7888;46.748;8.102;2023-04-03T06:26:56;10.80;54.10
15574;DHT22;7888;46.748;8.102;2023-04-03T06:29:23;10.80;54.10
15574;DHT22;7888;46.748;8.102;2023-04-03T06:31:50;10.80;54.00
15574;DHT22;7888;46.748;8.102;2023-04-03T06:34:17;10.80;53.90
15574;DHT22;7888;46.748;8.102;2023-04-03T06:36:44;10.80;53.70
15574;DHT22;7888;46.748;8.102;2023-04-03T06:39:16;10.80;53.60
15574;DHT22;7888;46.748;8.102;2023-04-03T06:41:51;10.80;53.50
15574;DHT22;7888;46.748;8.102;2023-04-03T06:44:17;10.80;53.30
15574;DHT22;7888;46.748;8.102;2023-04-03T06:46:44;10.80;53.20
15574;DHT22;7888;46.748;8.102;2023-04-03T07:20:19;10.60;53.10
15574;DHT22;7888;46.748;8.102;2023-04-03T07:22:45;10.60;53.10
15574;DHT22;7888;46.748;8.102;2023-04-03T07:25:11;10.50;53.10
15574;DHT22;7888;46.748;8.102;2023-04-03T07:27:37;10.50;53.20
15574;DHT22;7888;46.748;8.102;2023-04-03T07:30:04;10.50;53.90
15574;DHT22;7888;46.748;8.102;2023-04-03T07:32:31;10.50;53.30
15574;DHT22;7888;46.748;8.102;2023-04-03T07:34:57;10.50;53.10
15574;DHT22;7888;46.748;8.102;2023-04-03T07:37:23;10.40;52.90
15574;DHT22;7888;46.748;8.102;2023-04-03T07:39:49;10.50;53.10
15574;DHT22;7888;46.748;8.102;2023-04-03T07:42:16;10.50;53.30
15574;DHT22;7888;46.748;8.102;2023-04-03T07:44:42;10.50;53.30
15574;DHT22;7888;46.748;8.102;2023-04-03T07:47:08;10.60;53.30
15574;DHT22;7888;46.748;8.102;2023-04-03T07:49:34;10.60;53.20
15574;DHT22;7888;46.748;8.102;2023-04-03T07:52:03;10.70;53.10
15574;DHT22;7888;46.748;8.102;2023-04-03T07:54:29;10.70;53.20
15574;DHT22;7888;46.748;8.102;2023-04-03T07:56:55;10.80;53.30
15574;DHT22;7888;46.748;8.102;2023-04-03T07:59:22;10.80;53.40
15574;DHT22;7888;46.748;8.102;2023-04-03T08:01:47;10.90;53.50
15574;DHT22;7888;46.748;8.102;2023-04-03T08:04:13;11.00;53.50
15574;DHT22;7888;46.748;8.102;2023-04-03T08:06:39;11.10;53.70
15574;DHT22;7888;46.748;8.102;2023-04-03T08:09:05;11.30;53.80
15574;DHT22;7888;46.748;8.102;2023-04-03T08:11:31;11.40;53.70
15574;DHT22;7888;46.748;8.102;2023-04-03T08:13:57;11.60;53.80
15574;DHT22;7888;46.748;8.102;2023-04-03T08:16:24;11.70;53.40
15574;DHT22;7888;46.748;8.102;2023-04-03T08:18:53;11.80;53.20
15574;DHT22;7888;46.748;8.102;2023-04-03T08:21:20;11.90;53.00
15574;DHT22;7888;46.748;8.102;2023-04-03T08:23:51;12.00;52.70
15574;DHT22;7888;46.748;8.102;2023-04-03T08:26:19;12.10;52.30
15574;DHT22;7888;46.748;8.102;2023-04-03T08:28:46;12.20;52.00
15574;DHT22;7888;46.748;8.102;2023-04-03T08:31:16;12.20;51.80
15574;DHT22;7888;46.748;8.102;2023-04-03T08:33:44;12.30;51.70
15574;DHT22;7888;46.748;8.102;2023-04-03T08:36:28;12.40;51.70
15574;DHT22;7888;46.748;8.102;2023-04-03T08:38:56;12.40;50.70
15574;DHT22;7888;46.748;8.102;2023-04-03T08:41:39;12.40;51.30
15574;DHT22;7888;46.748;8.102;2023-04-03T08:49:53;12.50;50.60
15574;DHT22;7888;46.748;8.102;2023-04-03T08:52:39;12.50;50.20
15574;DHT22;7888;46.748;8.102;2023-04-03T08:55:28;12.50;50.80
15574;DHT22;7888;46.748;8.102;2023-04-03T08:58:06;12.50;50.30
15574;DHT22;7888;46.748;8.102;2023-04-03T09:01:00;12.50;50.50
15574;DHT22;7888;46.748;8.102;2023-04-03T09:03:30;12.50;50.20
15574;DHT22;7888;46.748;8.102;2023-04-03T09:08:45;12.50;50.20
15574;DHT22;7888;46.748;8.102;2023-04-03T09:17:00;12.60;50.20
15574;DHT22;7888;46.748;8.102;2023-04-03T09:19:39;12.60;50.00
15574;DHT22;7888;46.748;8.102;2023-04-03T09:22:18;12.70;50.10
15574;DHT22;7888;46.748;8.102;2023-04-03T09:24:57;12.70;50.10
15574;DHT22;7888;46.748;8.102;2023-04-03T09:27:31;12.80;50.00
15574;DHT22;7888;46.748;8.102;2023-04-03T09:29:57;12.90;50.50
15574;DHT22;7888;46.748;8.102;2023-04-03T09:32:32;13.00;50.50
15574;DHT22;7888;46.748;8.102;2023-04-03T09:35:16;13.20;50.20
15574;DHT22;7888;46.748;8.102;2023-04-03T09:37:45;13.30;50.50
15574;DHT22;7888;46.748;8.102;2023-04-03T09:42:56;13.70;49.40
15574;DHT22;7888;46.748;8.102;2023-04-03T09:45:27;13.80;49.60
15574;DHT22;7888;46.748;8.102;2023-04-03T09:48:07;14.00;49.50
15574;DHT22;7888;46.748;8.102;2023-04-03T09:53:37;14.20;48.50
15574;DHT22;7888;46.748;8.102;2023-04-03T09:56:29;14.20;48.50
15574;DHT22;7888;46.748;8.102;2023-04-03T10:04:12;14.30;48.30
15574;DHT22;7888;46.748;8.102;2023-04-03T10:06:48;14.40;47.90
15574;DHT22;7888;46.748;8.102;2023-04-03T10:09:26;14.40;48.30
15574;DHT22;7888;46.748;8.102;2023-04-03T10:12:06;14.50;47.80
15574;DHT22;7888;46.748;8.102;2023-04-03T10:15:00;14.60;47.80
15574;DHT22;7888;46.748;8.102;2023-04-03T10:20:40;14.70;47.40
15574;DHT22;7888;46.748;8.102;2023-04-03T10:23:17;14.70;46.40
15574;DHT22;7888;46.748;8.102;2023-04-03T10:34:43;14.80;46.40
15574;DHT22;7888;46.748;8.102;2023-04-03T10:37:23;14.90;47.20
15574;DHT22;7888;46.748;8.102;2023-04-03T10:39:57;15.00;46.80
15574;DHT22;7888;46.748;8.102;2023-04-03T10:45:44;15.10;45.60
15574;DHT22;7888;46.748;8.102;2023-04-03T10:56:39;15.10;45.60
15574;DHT22;7888;46.748;8.102;2023-04-03T10:59:32;15.10;45.70
15574;DHT22;7888;46.748;8.102;2023-04-03T11:02:11;15.10;45.30
15574;DHT22;7888;46.748;8.102;2023-04-03T11:04:43;15.10;45.60
15574;DHT22;7888;46.748;8.102;2023-04-03T11:07:22;15.10;45.50
15574;DHT22;7888;46.748;8.102;2023-04-03T11:09:58;15.00;45.10
15574;DHT22;7888;46.748;8.102;2023-04-03T11:12:54;14.90;44.90
15574;DHT22;7888;46.748;8.102;2023-04-03T11:15:32;14.80;44.40
15574;DHT22;7888;46.748;8.102;2023-04-03T11:18:04;14.80;45.30
15574;DHT22;7888;46.748;8.102;2023-04-03T11:20:42;14.70;45.00
15574;DHT22;7888;46.748;8.102;2023-04-03T11:23:20;14.60;45.00
15574;DHT22;7888;46.748;8.102;2023-04-03T11:25:54;14.50;45.30
15574;DHT22;7888;46.748;8.102;2023-04-03T11:28:27;14.40;45.10
15574;DHT22;7888;46.748;8.102;2023-04-03T11:36:47;14.20;45.30
15574;DHT22;7888;46.748;8.102;2023-04-03T11:39:33;14.20;45.20
15574;DHT22;7888;46.748;8.102;2023-04-03T11:42:24;14.10;44.70
15574;DHT22;7888;46.748;8.102;2023-04-03T11:47:54;14.10;44.70
15574;DHT22;7888;46.748;8.102;2023-04-03T12:00:48;14.00;45.10
15574;DHT22;7888;46.748;8.102;2023-04-03T12:13:35;14.00;45.10
15574;DHT22;7888;46.748;8.102;2023-04-03T12:16:04;14.00;45.30
15574;DHT22;7888;46.748;8.102;2023-04-03T12:47:31;14.20;43.90
15574;DHT22;7888;46.748;8.102;2023-04-03T12:50:02;14.10;44.10
15574;DHT22;7888;46.748;8.102;2023-04-03T12:53:28;14.10;44.40
15574;DHT22;7888;46.748;8.102;2023-04-03T12:56:19;14.00;43.90
15574;DHT22;7888;46.748;8.102;2023-04-03T12:58:50;13.90;43.90
15574;DHT22;7888;46.748;8.102;2023-04-03T13:01:20;13.80;44.50
15574;DHT22;7888;46.748;8.102;2023-04-03T13:03:54;13.70;44.70
15574;DHT22;7888;46.748;8.102;2023-04-03T13:06:38;13.70;44.80
15574;DHT22;7888;46.748;8.102;2023-04-03T13:09:06;13.60;44.40
15574;DHT22;7888;46.748;8.102;2023-04-03T13:11:52;13.50;44.40
15574;DHT22;7888;46.748;8.102;2023-04-03T13:14:27;13.40;44.50
15574;DHT22;7888;46.748;8.102;2023-04-03T13:16:59;13.40;44.60
15574;DHT22;7888;46.748;8.102;2023-04-03T13:19:37;13.30;44.50
15574;DHT22;7888;46.748;8.102;2023-04-03T13:25:00;13.10;44.40
15574;DHT22;7888;46.748;8.102;2023-04-03T13:27:31;13.10;44.90
15574;DHT22;7888;46.748;8.102;2023-04-03T13:29:59;13.00;45.00
15574;DHT22;7888;46.748;8.102;2023-04-03T13:32:28;13.00;45.00
15574;DHT22;7888;46.748;8.102;2023-04-03T13:34:56;13.00;45.10
15574;DHT22;7888;46.748;8.102;2023-04-03T13:37:31;12.90;45.20
15574;DHT22;7888;46.748;8.102;2023-04-03T13:40:19;13.00;45.60
15574;DHT22;7888;46.748;8.102;2023-04-03T13:42:45;12.90;45.20
15574;DHT22;7888;46.748;8.102;2023-04-03T13:45:19;12.90;45.10
15574;DHT22;7888;46.748;8.102;2023-04-03T13:47:51;12.90;45.20
15574;DHT22;7888;46.748;8.102;2023-04-03T13:50:25;12.90;45.00
15574;DHT22;7888;46.748;8.102;2023-04-03T13:53:11;12.90;45.00
15574;DHT22;7888;46.748;8.102;2023-04-03T13:55:55;12.90;44.80
15574;DHT22;7888;46.748;8.102;2023-04-03T13:58:25;12.90;44.90
15574;DHT22;7888;46.748;8.102;2023-04-03T14:01:17;12.90;45.20
15574;DHT22;7888;46.748;8.102;2023-04-03T14:03:59;12.90;45.00
15574;DHT22;7888;46.748;8.102;2023-04-03T14:06:29;12.90;45.10
15574;DHT22;7888;46.748;8.102;2023-04-03T14:08:55;12.90;45.00
15574;DHT22;7888;46.748;8.102;2023-04-03T14:11:26;12.80;44.90
15574;DHT22;7888;46.748;8.102;2023-04-03T14:14:09;12.80;44.90
15574;DHT22;7888;46.748;8.102;2023-04-03T14:16:41;12.70;44.90
15574;DHT22;7888;46.748;8.102;2023-04-03T14:19:23;12.70;45.20
15574;DHT22;7888;46.748;8.102;2023-04-03T14:21:57;12.70;44.90
15574;DHT22;7888;46.748;8.102;2023-04-03T14:24:25;12.70;45.20
15574;DHT22;7888;46.748;8.102;2023-04-03T14:26:53;12.60;45.10
15574;DHT22;7888;46.748;8.102;2023-04-03T14:29:21;12.60;44.90
15574;DHT22;7888;46.748;8.102;2023-04-03T14:31:48;12.60;44.90
15574;DHT22;7888;46.748;8.102;2023-04-03T14:34:15;12.50;44.90
15574;DHT22;7888;46.748;8.102;2023-04-03T14:36:43;12.50;45.00
15574;DHT22;7888;46.748;8.102;2023-04-03T14:39:17;12.40;45.00
15574;DHT22;7888;46.748;8.102;2023-04-03T14:41:44;12.40;44.90
15574;DHT22;7888;46.748;8.102;2023-04-03T14:44:10;12.30;45.00
15574;DHT22;7888;46.748;8.102;2023-04-03T14:46:39;12.30;45.00
15574;DHT22;7888;46.748;8.102;2023-04-03T14:49:20;12.20;44.90
15574;DHT22;7888;46.748;8.102;2023-04-03T14:51:49;12.20;44.80
15574;DHT22;7888;46.748;8.102;2023-04-03T14:54:20;12.10;45.10
15574;DHT22;7888;46.748;8.102;2023-04-03T14:56:57;12.10;45.00
15574;DHT22;7888;46.748;8.102;2023-04-03T14:59:31;12.00;45.00
15574;DHT22;7888;46.748;8.102;2023-04-03T15:01:58;11.90;44.90
15574;DHT22;7888;46.748;8.102;2023-04-03T15:04:23;11.90;45.20
15574;DHT22;7888;46.748;8.102;2023-04-03T15:06:51;11.80;45.20
15574;DHT22;7888;46.748;8.102;2023-04-03T15:09:24;11.80;45.30
15574;DHT22;7888;46.748;8.102;2023-04-03T15:11:53;11.70;45.20
15574;DHT22;7888;46.748;8.102;2023-04-03T15:14:20;11.70;45.30
15574;DHT22;7888;46.748;8.102;2023-04-03T15:16:46;11.60;45.30
15574;DHT22;7888;46.748;8.102;2023-04-03T15:19:12;11.60;45.50
15574;DHT22;7888;46.748;8.102;2023-04-03T15:21:38;11.50;45.60
15574;DHT22;7888;46.748;8.102;2023-04-03T15:24:04;11.50;45.50
15574;DHT22;7888;46.748;8.102;2023-04-03T15:26:31;11.40;45.50
15574;DHT22;7888;46.748;8.102;2023-04-03T15:28:58;11.40;45.70
15574;DHT22;7888;46.748;8.102;2023-04-03T15:31:24;11.40;45.70
15574;DHT22;7888;46.748;8.102;2023-04-03T15:33:50;11.40;45.70
15574;DHT22;7888;46.748;8.102;2023-04-03T15:36:15;11.40;45.70
15574;DHT22;7888;46.748;8.102;2023-04-03T15:38:41;11.40;45.60
15574;DHT22;7888;46.748;8.102;2023-04-03T15:41:07;11.40;45.40
15574;DHT22;7888;46.748;8.102;2023-04-03T15:43:33;11.50;45.60
15574;DHT22;7888;46.748;8.102;2023-04-03T15:46:01;11.40;45.60
15574;DHT22;7888;46.748;8.102;2023-04-03T15:48:27;11.40;45.50
15574;DHT22;7888;46.748;8.102;2023-04-03T15:50:54;11.40;45.50
15574;DHT22;7888;46.748;8.102;2023-04-03T15:53:20;11.40;45.50
15574;DHT22;7888;46.748;8.102;2023-04-03T15:55:46;11.40;45.40
15574;DHT22;7888;46.748;8.102;2023-04-03T15:58:12;11.40;45.40
15574;DHT22;7888;46.748;8.102;2023-04-03T16:00:38;11.40;45.30
15574;DHT22;7888;46.748;8.102;2023-04-03T16:03:08;11.40;45.00
15574;DHT22;7888;46.748;8.102;2023-04-03T16:05:38;11.40;45.00
15574;DHT22;7888;46.748;8.102;2023-04-03T16:08:05;11.40;44.90
15574;DHT22;7888;46.748;8.102;2023-04-03T16:10:33;11.40;44.90
15574;DHT22;7888;46.748;8.102;2023-04-03T16:13:00;11.40;44.80
15574;DHT22;7888;46.748;8.102;2023-04-03T16:15:27;11.40;44.80
15574;DHT22;7888;46.748;8.102;2023-04-03T16:17:54;11.40;44.80
15574;DHT22;7888;46.748;8.102;2023-04-03T16:20:20;11.30;44.90
15574;DHT22;7888;46.748;8.102;2023-04-03T16:22:48;11.30;44.90
15574;DHT22;7888;46.748;8.102;2023-04-03T16:25:14;11.30;45.70
15574;DHT22;7888;46.748;8.102;2023-04-03T16:27:41;11.30;44.90
15574;DHT22;7888;46.748;8.102;2023-04-03T16:30:08;11.30;45.00
15574;DHT22;7888;46.748;8.102;2023-04-03T16:32:36;11.30;44.90
15574;DHT22;7888;46.748;8.102;2023-04-03T16:35:04;11.30;44.90
15574;DHT22;7888;46.748;8.102;2023-04-03T16:37:31;11.20;44.80
15574;DHT22;7888;46.748;8.102;2023-04-03T16:39:57;11.20;44.60
15574;DHT22;7888;46.748;8.102;2023-04-03T16:42:24;11.20;44.60
15574;DHT22;7888;46.748;8.102;2023-04-03T16:44:51;11.10;44.70
15574;DHT22;7888;46.748;8.102;2023-04-03T16:47:17;11.10;44.70
15574;DHT22;7888;46.748;8.102;2023-04-03T16:49:45;11.00;44.70
15574;DHT22;7888;46.748;8.102;2023-04-03T16:52:13;11.00;44.80
15574;DHT22;7888;46.748;8.102;2023-04-03T16:54:39;10.90;44.70
15574;DHT22;7888;46.748;8.102;2023-04-03T16:57:05;10.90;44.80
15574;DHT22;7888;46.748;8.102;2023-04-03T16:59:32;10.90;44.80
15574;DHT22;7888;46.748;8.102;2023-04-03T17:01:58;10.80;44.90
15574;DHT22;7888;46.748;8.102;2023-04-03T17:04:24;10.80;45.20
15574;DHT22;7888;46.748;8.102;2023-04-03T17:06:51;10.70;45.30
15574;DHT22;7888;46.748;8.102;2023-04-03T17:09:18;10.70;45.30
15574;DHT22;7888;46.748;8.102;2023-04-03T17:11:45;10.60;45.20
15574;DHT22;7888;46.748;8.102;2023-04-03T17:14:12;10.60;45.30
15574;DHT22;7888;46.748;8.102;2023-04-03T17:16:37;10.50;45.30
15574;DHT22;7888;46.748;8.102;2023-04-03T17:19:04;10.50;45.30
15574;DHT22;7888;46.748;8.102;2023-04-03T17:21:31;10.40;45.30
15574;DHT22;7888;46.748;8.102;2023-04-03T17:24:03;10.40;45.30
15574;DHT22;7888;46.748;8.102;2023-04-03T17:26:34;10.40;45.20
15574;DHT22;7888;46.748;8.102;2023-04-03T17:29:02;10.40;45.30
15574;DHT22;7888;46.748;8.102;2023-04-03T17:31:28;10.30;45.30
15574;DHT22;7888;46.748;8.102;2023-04-03T17:33:54;10.30;45.20
15574;DHT22;7888;46.748;8.102;2023-04-03T17:36:20;10.30;45.20
15574;DHT22;7888;46.748;8.102;2023-04-03T17:38:46;10.30;45.40
15574;DHT22;7888;46.748;8.102;2023-04-03T17:41:13;10.30;45.30
15574;DHT22;7888;46.748;8.102;2023-04-03T17:43:39;10.20;45.20
15574;DHT22;7888;46.748;8.102;2023-04-03T17:46:07;10.20;45.40
15574;DHT22;7888;46.748;8.102;2023-04-03T17:48:35;10.10;45.30
15574;DHT22;7888;46.748;8.102;2023-04-03T17:51:11;10.10;45.30
15574;DHT22;7888;46.748;8.102;2023-04-03T17:53:38;10.10;45.30
15574;DHT22;7888;46.748;8.102;2023-04-03T17:56:10;10.10;45.30
15574;DHT22;7888;46.748;8.102;2023-04-03T17:58:41;10.10;45.40
15574;DHT22;7888;46.748;8.102;2023-04-03T18:01:12;10.00;46.10
15574;DHT22;7888;46.748;8.102;2023-04-03T18:03:41;10.00;45.30
15574;DHT22;7888;46.748;8.102;2023-04-03T18:06:10;10.00;45.60
15574;DHT22;7888;46.748;8.102;2023-04-03T18:08:41;10.00;45.50
15574;DHT22;7888;46.748;8.102;2023-04-03T18:11:29;9.90;45.60
15574;DHT22;7888;46.748;8.102;2023-04-03T18:13:57;9.90;45.60
15574;DHT22;7888;46.748;8.102;2023-04-03T18:16:26;9.80;45.60
15574;DHT22;7888;46.748;8.102;2023-04-03T18:18:52;9.70;45.60
15574;DHT22;7888;46.748;8.102;2023-04-03T18:21:18;9.70;45.70